Time;durP1;ratioP1;P1;durP2;ratioP2;P2;SDS_P1;SDS_P2;PMS_P1;PMS_P2;Temp;Humidity;BMP_temperature;BMP_pressure;BME280_temperature;BME280_humidity;BME280_pressure;Samples;Min_cycle;Max_cycle;Signal;HPM_P1;HPM_P2
2023/03/18 00:01:10;;;;;;;22.90;13.60;;;;;;;6.33;41.65;100398.47;4397619;32;33446;-80
2023/03/18 00:03:37;;;;;;;20.50;12.65;;;;;;;6.36;41.26;100402.16;4424607;32;33156;-76
2023/03/18 00:06:11;;;;;;;22.27;12.48;;;;;;;6.31;41.65;100400.94;4405022;32;34019;-76
2023/03/18 00:08:41;;;;;;;22.05;12.63;;;;;;;6.46;41.25;100396.87;4449025;32;34146;-77
2023/03/18 00:11:10;;;;;;;19.73;12.23;;;;;;;6.48;41.00;100390.16;4391983;32;33594;-78
2023/03/18 00:13:38;;;;;;;18.70;11.70;;;;;;;6.57;40.90;100391.59;4421444;32;33400;-78
2023/03/18 00:16:07;;;;;;;18.52;11.85;;;;;;;6.39;41.13;100381.78;4395512;32;33765;-79
2023/03/18 00:18:36;;;;;;;19.58;12.30;;;;;;;6.44;40.97;100385.59;4418094;32;33730;-81
2023/03/18 00:21:04;;;;;;;18.47;12.03;;;;;;;6.57;40.95;100387.34;4423662;32;33381;-77
2023/03/18 00:23:32;;;;;;;20.08;12.00;;;;;;;6.39;41.44;100376.63;4397775;32;33679;-80
2023/03/18 00:26:01;;;;;;;19.58;12.20;;;;;;;6.49;41.24;100384.22;4414210;32;33607;-80
2023/03/18 00:28:30;;;;;;;20.33;12.80;;;;;;;6.40;41.25;100383.59;4379441;32;32937;-80
2023/03/18 00:31:07;;;;;;;27.83;16.17;;;;;;;6.39;42.04;100376.63;4412561;32;33414;-76
2023/03/18 00:33:36;;;;;;;32.47;17.45;;;;;;;6.34;42.60;100383.16;4385497;32;32998;-78
2023/03/18 00:36:08;;;;;;;20.47;12.53;;;;;;;6.37;42.56;100382.47;4398018;32;32830;-81
2023/03/18 00:38:36;;;;;;;20.83;12.48;;;;;;;6.13;42.98;100381.62;4389495;32;32442;-80
2023/03/18 00:41:10;;;;;;;21.92;12.93;;;;;;;6.12;43.00;100385.84;4391879;32;34337;-80
2023/03/18 00:43:45;;;;;;;21.87;13.77;;;;;;;6.01;42.89;100382.53;4388006;32;32644;-80
2023/03/18 00:46:16;;;;;;;19.80;12.25;;;;;;;6.07;42.91;100376.94;4399515;32;33763;-78
2023/03/18 00:48:45;;;;;;;19.40;11.90;;;;;;;5.87;43.65;100373.78;4388546;32;33725;-77
2023/03/18 00:51:15;;;;;;;17.15;11.12;;;;;;;5.43;45.14;100373.09;4392845;32;33780;-79
2023/03/18 00:53:46;;;;;;;18.45;11.12;;;;;;;5.38;45.43;100380.44;4387487;32;32899;-78
2023/03/18 00:56:15;;;;;;;18.30;11.02;;;;;;;5.41;45.71;100379.78;4393908;32;34469;-77
2023/03/18 00:58:42;;;;;;;17.52;10.90;;;;;;;5.39;45.83;100373.63;4395902;32;33700;-77
2023/03/18 01:01:12;;;;;;;17.95;10.70;;;;;;;4.79;48.14;100370.03;4398259;32;33906;-78
2023/03/18 01:03:41;;;;;;;18.00;10.70;;;;;;;4.75;48.10;100367.97;4385744;32;32727;-78
2023/03/18 01:06:14;;;;;;;18.60;11.43;;;;;;;4.95;48.81;100381.47;4404442;32;32323;-81
2023/03/18 01:08:42;;;;;;;17.58;10.57;;;;;;;4.78;48.95;100365.66;4376355;32;33005;-80
2023/03/18 01:11:10;;;;;;;15.37;10.30;;;;;;;4.42;49.55;100364.59;4378330;32;34129;-77
2023/03/18 01:13:38;;;;;;;16.65;10.68;;;;;;;4.36;50.20;100369.25;4387593;32;33457;-81
2023/03/18 01:16:07;;;;;;;19.60;10.77;;;;;;;4.37;49.81;100365.03;4391508;32;32164;-76
2023/03/18 01:18:36;;;;;;;18.42;11.65;;;;;;;3.59;52.01;100369.94;4384061;32;33144;-78
2023/03/18 01:21:04;;;;;;;19.98;11.80;;;;;;;2.81;54.05;100372.91;4389163;32;33314;-77
2023/03/18 01:23:31;;;;;;;21.48;12.13;;;;;;;2.27;56.07;100365.78;4405936;32;34491;-81
2023/03/18 01:25:59;;;;;;;20.10;11.88;;;;;;;2.25;56.98;100361.31;4392400;32;34325;-80
2023/03/18 01:28:27;;;;;;;20.55;12.23;;;;;;;1.72;58.88;100354.19;4381297;32;33366;-76
2023/03/18 01:30:56;;;;;;;22.00;12.77;;;;;;;1.67;58.96;100355.44;4389377;32;33491;-80
2023/03/18 01:33:24;;;;;;;19.73;11.90;;;;;;;1.82;58.69;100343.13;4399634;32;33406;-78
2023/03/18 01:35:54;;;;;;;18.83;11.50;;;;;;;1.82;58.64;100343.13;4390908;32;33024;-79
2023/03/18 01:38:23;;;;;;;18.33;10.83;;;;;;;2.02;57.53;100339.75;4374713;32;33409;-81
2023/03/18 01:40:53;;;;;;;18.23;10.95;;;;;;;2.91;54.60;100333.66;4376490;32;34011;-78
2023/03/18 01:43:28;;;;;;;16.33;10.20;;;;;;;3.49;53.36;100328.19;4393500;32;33254;-79
2023/03/18 01:45:59;;;;;;;17.95;11.23;;;;;;;3.52;53.03;100338.69;4394258;32;34074;-78
2023/03/18 01:48:29;;;;;;;18.83;11.73;;;;;;;3.47;53.41;100344.22;4385828;32;33320;-80
2023/03/18 01:51:04;;;;;;;16.80;10.50;;;;;;;3.89;53.88;100322.81;4375757;32;33427;-77
2023/03/18 01:53:37;;;;;;;17.23;10.90;;;;;;;3.74;53.11;100323.38;4373942;32;33425;-78
2023/03/18 01:56:06;;;;;;;19.00;10.80;;;;;;;3.89;52.47;100325.37;4377822;32;33057;-79
2023/03/18 01:58:47;;;;;;;17.67;11.47;;;;;;;4.08;51.77;100323.50;4375125;32;34069;-82
2023/03/18 02:01:27;;;;;;;17.73;10.25;;;;;;;4.11;51.79;100322.84;4381801;32;32766;-79
2023/03/18 02:03:55;;;;;;;17.95;11.05;;;;;;;4.01;51.96;100322.91;4399515;32;33053;-81
2023/03/18 02:06:23;;;;;;;21.70;13.50;;;;;;;4.26;51.39;100328.28;4401863;32;34450;-83
2023/03/18 02:08:54;;;;;;;19.05;12.02;;;;;;;4.12;51.51;100325.53;4390990;32;33094;-78
2023/03/18 02:11:22;;;;;;;16.30;11.18;;;;;;;3.97;51.19;100321.75;4391137;32;34440;-78
2023/03/18 02:13:51;;;;;;;18.35;11.27;;;;;;;3.96;51.39;100330.25;4390839;32;34347;-82
2023/03/18 02:16:24;;;;;;;18.98;12.10;;;;;;;4.05;50.47;100328.37;4382586;32;33190;-80
2023/03/18 02:18:58;;;;;;;17.65;10.98;;;;;;;3.99;50.48;100324.44;4397816;32;33731;-79
2023/03/18 02:21:47;;;;;;;17.93;10.87;;;;;;;3.87;50.44;100326.94;4375941;32;33989;-82
2023/03/18 02:25:00;;;;;;;15.23;9.52;;;;;;;3.32;52.37;100328.47;4390820;32;33690;-83
2023/03/18 02:27:31;;;;;;;15.68;9.50;;;;;;;3.49;52.81;100317.06;4393012;32;32666;-78
2023/03/18 02:30:04;;;;;;;16.98;9.35;;;;;;;3.73;52.00;100326.72;4380822;32;33565;-82
2023/03/18 02:32:33;;;;;;;16.80;10.23;;;;;;;3.91;51.53;100319.59;4382881;32;33266;-77
2023/03/18 02:35:05;;;;;;;17.67;9.75;;;;;;;3.73;53.03;100324.16;4385061;32;34327;-78
2023/03/18 02:37:33;;;;;;;15.80;10.23;;;;;;;3.74;52.91;100325.06;4394552;32;33609;-80
2023/03/18 02:40:16;;;;;;;16.48;10.07;;;;;;;3.63;53.53;100321.66;4393923;32;33679;-79
2023/03/18 02:42:45;;;;;;;17.60;10.25;;;;;;;3.05;54.73;100329.66;4376887;32;32822;-81
2023/03/18 02:45:32;;;;;;;17.57;11.10;;;;;;;3.56;53.31;100324.47;4379213;32;33719;-80
2023/03/18 02:48:02;;;;;;;18.08;11.05;;;;;;;3.76;52.65;100323.50;4368816;32;32382;-81
2023/03/18 02:50:29;;;;;;;18.37;11.70;;;;;;;3.96;51.90;100327.69;4385665;32;33957;-77
2023/03/18 02:52:58;;;;;;;17.70;11.50;;;;;;;3.63;52.60;100326.78;4401572;32;34068;-80
2023/03/18 02:55:26;;;;;;;18.52;11.57;;;;;;;4.12;51.54;100329.78;4390126;32;33572;-81
2023/03/18 02:57:54;;;;;;;19.37;11.50;;;;;;;3.83;52.40;100330.91;4390681;32;33752;-80
2023/03/18 03:00:23;;;;;;;19.67;11.95;;;;;;;3.61;53.53;100330.88;4390579;32;33759;-80
2023/03/18 03:02:51;;;;;;;18.23;12.10;;;;;;;3.60;53.60;100334.19;4394753;32;34666;-81
2023/03/18 03:05:19;;;;;;;19.87;12.57;;;;;;;3.62;54.01;100330.09;4397591;32;34115;-79
2023/03/18 03:07:47;;;;;;;18.73;11.65;;;;;;;3.43;55.08;100321.69;4400121;32;33787;-78
2023/03/18 03:10:15;;;;;;;18.52;11.43;;;;;;;3.42;55.32;100320.81;4404113;32;32850;-82
2023/03/18 03:12:42;;;;;;;16.98;10.30;;;;;;;3.32;55.19;100326.84;4389549;32;33198;-80
2023/03/18 03:15:10;;;;;;;15.38;10.88;;;;;;;3.30;54.96;100324.91;4377773;32;33837;-82
2023/03/18 03:17:40;;;;;;;17.27;10.93;;;;;;;3.38;55.82;100333.22;4401416;32;34297;-82
2023/03/18 03:20:09;;;;;;;17.80;10.82;;;;;;;3.44;55.38;100320.91;4396685;32;33970;-80
2023/03/18 03:22:36;;;;;;;16.20;10.10;;;;;;;2.82;56.36;100326.13;4407351;32;34441;-78
2023/03/18 03:25:05;;;;;;;15.13;9.32;;;;;;;1.69;60.12;100336.03;4446085;32;33672;-81
2023/03/18 03:27:33;;;;;;;16.47;8.97;;;;;;;1.76;59.87;100332.37;4402486;32;34629;-82
2023/03/18 03:30:00;;;;;;;15.93;8.47;;;;;;;2.10;58.67;100338.75;4446041;32;32064;-81
2023/03/18 03:32:28;;;;;;;13.50;8.43;;;;;;;2.41;57.20;100338.84;4418708;32;34789;-80
2023/03/18 03:34:55;;;;;;;14.90;8.48;;;;;;;2.16;58.00;100334.19;4415188;32;34597;-82
2023/03/18 03:37:23;;;;;;;14.32;8.00;;;;;;;2.69;56.54;100341.19;4419486;32;34285;-78
2023/03/18 03:39:50;;;;;;;16.50;8.82;;;;;;;2.99;55.57;100344.53;4389445;32;33417;-79
2023/03/18 03:42:18;;;;;;;15.68;8.45;;;;;;;3.03;54.73;100344.00;4403700;32;33702;-82
2023/03/18 03:44:46;;;;;;;13.85;7.57;;;;;;;2.53;56.77;100350.13;4394647;32;33391;-80
2023/03/18 03:47:14;;;;;;;16.42;7.78;;;;;;;1.80;59.73;100348.84;4453449;32;33770;-80
2023/03/18 03:49:42;;;;;;;16.08;8.07;;;;;;;2.50;57.60;100347.28;4398143;32;34017;-79
2023/03/18 03:52:09;;;;;;;15.45;8.45;;;;;;;2.78;56.99;100357.31;4446393;32;33484;-81
2023/03/18 03:54:40;;;;;;;14.20;8.32;;;;;;;2.06;58.65;100348.59;4415088;32;34152;-80
2023/03/18 03:57:08;;;;;;;12.93;7.97;;;;;;;2.26;58.21;100347.75;4443142;32;32839;-81
2023/03/18 03:59:35;;;;;;;12.95;7.97;;;;;;;2.79;56.46;100354.00;4389836;32;32120;-80
2023/03/18 04:02:04;;;;;;;13.27;7.35;;;;;;;2.81;56.28;100352.44;4412363;32;33770;-80
2023/03/18 04:04:32;;;;;;;14.43;8.25;;;;;;;2.90;55.74;100347.22;4436519;32;34514;-81
2023/03/18 04:07:00;;;;;;;13.50;8.07;;;;;;;2.66;56.73;100352.03;4421717;32;33517;-80
2023/03/18 04:09:28;;;;;;;13.57;7.95;;;;;;;3.01;55.90;100350.66;4400340;32;33399;-80
2023/03/18 04:11:56;;;;;;;14.18;7.60;;;;;;;2.92;56.09;100346.56;4409554;32;34370;-77
2023/03/18 04:14:23;;;;;;;14.90;8.05;;;;;;;3.00;55.69;100354.00;4412355;32;33801;-79
2023/03/18 04:16:51;;;;;;;12.85;7.35;;;;;;;3.06;55.71;100357.06;4416847;32;33242;-78
2023/03/18 04:19:18;;;;;;;12.60;7.57;;;;;;;3.05;54.87;100347.59;4417540;32;34090;-79
2023/03/18 04:21:46;;;;;;;12.95;7.28;;;;;;;2.93;55.34;100348.34;4384336;32;32834;-79
2023/03/18 04:24:13;;;;;;;14.20;7.68;;;;;;;2.74;56.03;100350.13;4409770;32;33862;-79
2023/03/18 04:26:44;;;;;;;13.23;7.87;;;;;;;3.16;54.57;100357.06;4428815;32;32720;-81
2023/03/18 04:29:12;;;;;;;11.75;7.03;;;;;;;3.25;54.12;100352.72;4414909;32;33202;-79
2023/03/18 04:31:39;;;;;;;13.52;7.70;;;;;;;3.31;53.65;100360.88;4439709;32;33770;-81
2023/03/18 04:34:08;;;;;;;13.17;7.80;;;;;;;2.97;54.61;100362.31;4398910;32;33685;-80
2023/03/18 04:36:36;;;;;;;14.60;7.87;;;;;;;3.04;54.69;100361.16;4404241;32;33448;-79
2023/03/18 04:39:04;;;;;;;14.40;7.72;;;;;;;3.14;53.60;100349.25;4404505;32;33071;-83
2023/03/18 04:41:31;;;;;;;14.77;8.17;;;;;;;3.56;52.42;100355.22;4397965;32;33518;-78
2023/03/18 04:44:00;;;;;;;13.65;8.13;;;;;;;3.34;52.92;100358.59;4442824;32;33777;-80
2023/03/18 04:46:31;;;;;;;13.75;7.75;;;;;;;3.17;52.39;100364.00;4421234;32;34217;-79
2023/03/18 04:48:59;;;;;;;14.38;7.93;;;;;;;2.81;54.79;100367.81;4418833;32;34049;-81
2023/03/18 04:51:27;;;;;;;12.43;7.95;;;;;;;3.23;53.74;100364.50;4395324;32;33804;-79
2023/03/18 04:53:55;;;;;;;15.23;8.20;;;;;;;3.27;53.56;100371.66;4393291;32;34429;-81
2023/03/18 04:56:25;;;;;;;13.90;8.55;;;;;;;3.56;52.83;100375.72;4426830;32;33616;-78
2023/03/18 04:58:52;;;;;;;14.32;8.70;;;;;;;3.50;52.66;100365.84;4423128;32;33280;-83
2023/03/18 05:01:22;;;;;;;14.90;8.57;;;;;;;3.59;53.35;100370.81;4393025;32;33814;-81
2023/03/18 05:03:50;;;;;;;12.90;8.05;;;;;;;3.77;52.53;100366.31;4417493;32;33867;-80
2023/03/18 05:06:24;;;;;;;15.90;8.85;;;;;;;3.68;52.04;100376.69;4413360;32;34699;-79
2023/03/18 05:08:53;;;;;;;15.38;8.20;;;;;;;3.69;52.25;100380.13;4391556;32;32649;-82
2023/03/18 05:11:21;;;;;;;13.83;8.43;;;;;;;3.72;52.64;100378.72;4398087;32;33845;-81
2023/03/18 05:13:50;;;;;;;15.63;9.02;;;;;;;3.29;54.81;100379.47;4390303;32;33403;-80
2023/03/18 05:16:18;;;;;;;18.00;9.80;;;;;;;3.04;54.47;100381.66;4394093;32;33988;-83
2023/03/18 05:18:47;;;;;;;13.50;8.90;;;;;;;2.59;55.25;100379.53;4383396;32;33769;-81
2023/03/18 05:21:15;;;;;;;17.57;9.47;;;;;;;3.29;53.76;100377.78;4380452;32;33103;-82
2023/03/18 05:23:43;;;;;;;18.55;9.60;;;;;;;3.44;53.86;100387.50;4401744;32;34463;-82
2023/03/18 05:26:11;;;;;;;15.02;9.00;;;;;;;3.08;54.46;100381.12;4432321;32;33380;-82
2023/03/18 05:28:39;;;;;;;17.00;9.30;;;;;;;3.79;52.49;100381.81;4415357;32;32606;-78
2023/03/18 05:31:07;;;;;;;16.23;8.90;;;;;;;3.23;54.42;100384.97;4390649;32;33239;-83
2023/03/18 05:33:35;;;;;;;14.05;9.20;;;;;;;3.64;53.07;100392.59;4402476;32;31954;-79
2023/03/18 05:36:04;;;;;;;15.85;8.73;;;;;;;3.73;53.08;100388.22;4437505;32;33802;-81
2023/03/18 05:38:32;;;;;;;16.15;9.55;;;;;;;3.94;52.55;100394.19;4446466;32;33060;-79
2023/03/18 05:41:01;;;;;;;16.70;9.30;;;;;;;3.95;52.79;100389.94;4453069;32;33433;-78
2023/03/18 05:43:30;;;;;;;15.52;9.07;;;;;;;3.87;52.80;100391.00;4441882;32;33577;-80
2023/03/18 05:45:58;;;;;;;15.63;9.15;;;;;;;3.60;54.59;100397.34;4452850;32;33690;-81
2023/03/18 05:48:27;;;;;;;16.45;9.73;;;;;;;4.21;52.80;100397.16;4452969;32;33194;-79
2023/03/18 05:50:57;;;;;;;16.15;9.68;;;;;;;3.95;52.72;100397.63;4455659;32;33956;-80
2023/03/18 05:53:25;;;;;;;15.45;9.48;;;;;;;4.43;52.09;100397.19;4437875;32;33709;-79
2023/03/18 05:55:53;;;;;;;15.93;9.57;;;;;;;4.46;50.77;100400.00;4451693;32;33540;-81
2023/03/18 05:58:21;;;;;;;16.55;9.25;;;;;;;4.56;50.69;100400.69;4453701;32;33368;-81
2023/03/18 06:00:50;;;;;;;14.75;8.80;;;;;;;4.83;49.49;100402.84;4452968;32;33724;-80
2023/03/18 06:03:18;;;;;;;12.60;7.25;;;;;;;4.84;49.15;100396.94;4453504;32;33763;-79
2023/03/18 06:05:46;;;;;;;13.88;7.03;;;;;;;5.17;48.49;100401.97;4442893;32;33818;-80
2023/03/18 06:08:14;;;;;;;16.23;8.13;;;;;;;5.03;48.86;100412.06;4452644;32;33293;-84
2023/03/18 06:10:42;;;;;;;13.20;6.85;;;;;;;4.89;49.74;100408.47;4439243;32;32061;-79
2023/03/18 06:13:10;;;;;;;15.15;7.03;;;;;;;5.31;48.48;100412.50;4447053;32;34802;-81
2023/03/18 06:15:38;;;;;;;14.87;7.03;;;;;;;5.18;49.10;100412.34;4452923;32;34065;-81
2023/03/18 06:18:06;;;;;;;13.05;6.85;;;;;;;5.41;48.29;100413.16;4446911;32;33306;-79
2023/03/18 06:20:34;;;;;;;11.88;6.80;;;;;;;5.58;47.53;100410.22;4446324;32;34591;-81
2023/03/18 06:23:02;;;;;;;15.80;6.87;;;;;;;5.26;48.21;100411.25;4442132;32;34533;-82
2023/03/18 06:25:30;;;;;;;16.80;7.18;;;;;;;5.40;48.15;100411.41;4448899;32;34671;-79
2023/03/18 06:27:58;;;;;;;15.98;7.53;;;;;;;5.16;48.59;100413.91;4444330;32;33489;-79
2023/03/18 06:30:27;;;;;;;12.70;7.03;;;;;;;5.27;48.56;100413.06;4458415;32;34382;-81
2023/03/18 06:32:54;;;;;;;13.73;7.12;;;;;;;5.21;48.58;100415.12;4453660;32;34272;-81
2023/03/18 06:35:26;;;;;;;;;;;;;;;5.45;48.19;100423.81;4427348;32;35743;-80
2023/03/18 06:37:54;;;;;;;13.25;6.87;;;;;;;5.77;47.56;100421.84;4403376;32;33277;-79
2023/03/18 06:40:23;;;;;;;13.93;7.12;;;;;;;6.04;47.23;100429.03;4434475;32;33831;-79
2023/03/18 06:42:51;;;;;;;14.77;6.82;;;;;;;5.80;47.52;100432.38;4461722;32;33913;-80
2023/03/18 06:45:24;;;;;;;14.25;7.12;;;;;;;6.07;47.29;100429.25;4433026;32;34642;-82
2023/03/18 06:47:53;;;;;;;15.43;7.15;;;;;;;5.82;47.77;100441.09;4378384;32;34408;-80
2023/03/18 06:50:21;;;;;;;12.57;6.32;;;;;;;5.50;48.56;100431.84;4379643;32;34320;-78
2023/03/18 06:52:49;;;;;;;16.30;6.43;;;;;;;5.77;47.96;100443.28;4419188;32;34631;-78
2023/03/18 06:55:17;;;;;;;15.20;7.78;;;;;;;5.78;48.25;100441.63;4391995;32;35091;-79
2023/03/18 06:57:45;;;;;;;12.93;6.53;;;;;;;5.68;48.35;100448.66;4402980;32;33357;-82
2023/03/18 07:00:14;;;;;;;11.27;6.00;;;;;;;6.32;47.07;100446.47;4424787;32;34633;-79
2023/03/18 07:02:42;;;;;;;10.10;5.95;;;;;;;6.31;47.23;100439.53;4423340;32;34710;-81
2023/03/18 07:05:11;;;;;;;13.05;6.78;;;;;;;6.30;47.29;100442.91;4432592;32;33752;-83
2023/03/18 07:07:39;;;;;;;11.60;6.62;;;;;;;6.13;47.74;100438.22;4445465;32;34230;-81
2023/03/18 07:10:12;;;;;;;16.27;7.03;;;;;;;6.50;46.39;100439.16;4418521;32;34110;-80
2023/03/18 07:12:40;;;;;;;13.85;6.53;;;;;;;6.39;46.27;100433.25;4412511;32;34502;-80
2023/03/18 07:15:10;;;;;;;23.92;8.13;;;;;;;6.26;47.30;100441.78;4408912;32;33888;-79
2023/03/18 07:17:37;;;;;;;11.05;6.37;;;;;;;6.80;45.97;100437.88;4437339;32;34095;-81
2023/03/18 07:20:06;;;;;;;10.82;6.97;;;;;;;6.82;46.24;100437.97;4443648;32;34840;-78
2023/03/18 07:22:34;;;;;;;14.32;6.87;;;;;;;6.92;46.11;100437.81;4431421;32;34698;-81
2023/03/18 07:25:02;;;;;;;14.35;6.40;;;;;;;7.20;44.88;100443.19;4412817;32;33665;-82
2023/03/18 07:27:30;;;;;;;10.88;6.10;;;;;;;7.07;45.35;100440.56;4441587;32;33553;-78
2023/03/18 07:29:58;;;;;;;13.68;7.25;;;;;;;6.95;46.03;100442.28;4389855;32;33005;-78
2023/03/18 07:32:25;;;;;;;12.02;6.70;;;;;;;6.81;45.71;100434.50;4416064;32;33697;-80
2023/03/18 07:34:53;;;;;;;13.05;6.43;;;;;;;7.07;44.93;100440.56;4404001;32;34245;-81
2023/03/18 07:37:20;;;;;;;11.20;6.00;;;;;;;6.99;45.74;100446.84;4392866;32;33273;-79
2023/03/18 07:39:48;;;;;;;15.38;7.07;;;;;;;7.02;44.97;100445.38;4392146;32;33945;-83
2023/03/18 07:42:16;;;;;;;11.43;6.68;;;;;;;7.63;44.63;100447.75;4376540;32;34050;-79
2023/03/18 07:44:44;;;;;;;12.93;6.20;;;;;;;7.63;45.25;100452.91;4388053;32;34368;-80
2023/03/18 07:47:13;;;;;;;12.20;6.28;;;;;;;7.70;44.40;100456.81;4398699;32;33361;-80
2023/03/18 07:49:42;;;;;;;13.18;6.50;;;;;;;7.84;43.79;100458.59;4381545;32;33617;-77
2023/03/18 07:52:09;;;;;;;13.15;5.62;;;;;;;7.85;44.05;100456.12;4413936;32;33242;-81
2023/03/18 07:54:36;;;;;;;11.68;5.72;;;;;;;8.15;45.33;100450.28;4404275;32;33826;-85
2023/03/18 07:57:05;;;;;;;12.82;6.78;;;;;;;8.27;43.00;100448.53;4393359;32;33828;-81
2023/03/18 07:59:33;;;;;;;12.43;6.20;;;;;;;8.16;42.56;100457.25;4397646;32;34534;-81
2023/03/18 08:02:01;;;;;;;13.68;6.53;;;;;;;8.36;42.91;100446.50;4426627;32;33731;-81
2023/03/18 08:04:30;;;;;;;16.55;6.32;;;;;;;8.51;44.55;100453.50;4392721;32;33836;-81
2023/03/18 08:06:57;;;;;;;12.25;6.05;;;;;;;9.04;41.61;100458.53;4415422;32;33730;-82
2023/03/18 08:09:26;;;;;;;11.40;6.28;;;;;;;9.27;41.17;100453.84;4404153;32;34601;-82
2023/03/18 08:11:54;;;;;;;11.68;7.28;;;;;;;9.32;40.92;100453.34;4432973;32;33609;-81
2023/03/18 08:14:21;;;;;;;12.90;5.70;;;;;;;9.01;40.94;100451.47;4408296;32;34207;-78
2023/03/18 08:16:49;;;;;;;11.45;5.90;;;;;;;9.04;41.35;100445.62;4448984;32;33851;-80
2023/03/18 08:19:16;;;;;;;11.20;6.00;;;;;;;9.54;40.35;100445.19;4429155;32;34437;-78
2023/03/18 08:21:44;;;;;;;13.05;6.07;;;;;;;9.24;40.84;100445.12;4426027;32;32697;-78
2023/03/18 08:24:11;;;;;;;;;;;;;;;9.38;41.32;100452.81;4414411;32;34722;-78
2023/03/18 08:26:39;;;;;;;;;;;;;;;9.75;40.25;100449.81;4436411;32;33677;-78
2023/03/18 08:29:06;;;;;;;;;;;;;;;10.06;39.40;100443.81;4411039;32;34286;-83
2023/03/18 08:31:34;;;;;;;;;;;;;;;9.96;39.53;100440.69;4406783;32;34808;-76
2023/03/18 08:34:01;;;;;;;;;;;;;;;10.22;38.91;100449.06;4396459;32;33186;-80
2023/03/18 08:36:28;;;;;;;;;;;;;;;10.18;39.21;100448.00;4424772;32;83065;-81
2023/03/18 08:38:56;;;;;;;;;;;;;;;10.45;38.57;100436.53;4459534;32;33927;-77
2023/03/18 08:41:24;;;;;;;;;;;;;;;10.71;38.70;100435.38;4454289;32;33897;-81
2023/03/18 08:43:54;;;;;;;;;;;;;;;11.05;38.16;100435.50;4441857;32;34454;-79
2023/03/18 08:46:21;;;;;;;;;;;;;;;11.53;36.60;100432.75;4456178;32;33876;-78
2023/03/18 08:48:50;;;;;;;;;;;;;;;12.08;36.06;100426.87;4439777;32;35014;-79
2023/03/18 08:51:17;;;;;;;;;;;;;;;12.56;34.81;100430.03;4453281;32;33772;-78
2023/03/18 08:53:44;;;;;;;;;;;;;;;12.11;35.71;100427.91;4444886;32;33644;-82
2023/03/18 08:56:13;;;;;;;;;;;;;;;12.33;35.88;100432.44;4457065;32;34095;-79
2023/03/18 08:58:40;;;;;;;;;;;;;;;12.76;35.11;100424.03;4454722;32;34530;-83
2023/03/18 09:01:08;;;;;;;;;;;;;;;13.39;34.01;100423.37;4452986;32;34396;-79
2023/03/18 09:03:38;;;;;;;;;;;;;;;12.92;34.95;100430.84;4458643;32;33229;-78
2023/03/18 09:06:05;;;;;;;;;;;;;;;12.82;35.98;100438.13;4455098;32;33100;-82
2023/03/18 09:08:33;;;;;;;;;;;;;;;13.38;33.70;100434.59;4458627;32;34409;-80
2023/03/18 09:11:00;;;;;;;;;;;;;;;13.59;32.86;100425.97;4455401;32;34180;-82
2023/03/18 09:13:27;;;;;;;;;;;;;;;13.06;34.56;100427.97;4458538;32;34204;-82
2023/03/18 09:15:55;;;;;;;;;;;;;;;13.47;32.64;100427.22;4439603;32;33766;-79
2023/03/18 09:18:23;;;;;;;;;;;;;;;13.64;32.54;100416.66;4449161;32;34555;-80
2023/03/18 09:20:51;;;;;;;;;;;;;;;13.50;31.89;100409.13;4422783;32;33349;-82
2023/03/18 09:23:18;;;;;;;;;;;;;;;13.46;33.12;100420.25;4447626;32;33765;-82
2023/03/18 09:25:47;;;;;;;;;;;;;;;13.78;32.87;100412.88;4454104;32;33441;-79
2023/03/18 09:28:14;;;;;;;;;;;;;;;14.15;31.27;100414.38;4454065;32;34232;-82
2023/03/18 09:30:41;;;;;;;;;;;;;;;14.05;32.25;100407.91;4454441;32;33826;-80
2023/03/18 09:33:10;;;;;;;;;;;;;;;14.00;32.42;100411.16;4459180;32;34089;-82
2023/03/18 09:35:38;;;;;;;;;;;;;;;14.71;31.39;100409.63;4447456;32;32524;-82
2023/03/18 09:38:06;;;;;;;;;;;;;;;14.53;30.98;100401.97;4388528;32;34071;-83
2023/03/18 09:40:35;;;;;;;;;;;;;;;14.65;34.04;100406.81;4381130;32;34882;-79
2023/03/18 09:43:11;;;;;;;;;;;;;;;14.74;30.72;100401.94;4372657;32;34902;-82
2023/03/18 09:45:59;;;;;;;;;;;;;;;15.11;30.94;100393.72;4389705;32;33425;-84
2023/03/18 09:48:30;;;;;;;;;;;;;;;14.03;32.44;100398.28;4384023;32;33972;-79
2023/03/18 09:51:09;;;;;;;;;;;;;;;14.93;32.32;100403.50;4405389;32;34936;-82
2023/03/18 09:53:40;;;;;;;;;;;;;;;15.01;30.47;100394.25;4426684;32;32649;-82
2023/03/18 09:56:09;;;;;;;;;;;;;;;15.80;30.24;100390.03;4392500;32;32198;-80
2023/03/18 09:58:55;;;;;;;;;;;;;;;16.22;28.87;100397.47;4403530;32;34617;-79
2023/03/18 10:01:23;;;;;;;;;;;;;;;14.96;30.31;100397.53;4384680;32;34369;-80
2023/03/18 10:04:03;;;;;;;;;;;;;;;14.74;31.38;100397.59;4435936;32;34237;-82
2023/03/18 10:06:30;;;;;;;;;;;;;;;14.39;31.93;100393.63;4439200;32;32336;-80
2023/03/18 10:09:16;;;;;;;;;;;;;;;13.72;32.26;100381.41;4446675;32;34274;-80
2023/03/18 10:11:43;;;;;;;;;;;;;;;13.51;32.43;100382.25;4431744;32;35170;-80
2023/03/18 10:14:34;;;;;;;;;;;;;;;15.02;30.86;100379.47;4431247;32;34764;-78
2023/03/18 10:17:14;;;;;;;;;;;;;;;14.63;30.55;100378.06;4419501;32;33986;-80
2023/03/18 10:19:44;;;;;;;;;;;;;;;15.37;29.36;100378.09;4433839;32;34171;-79
2023/03/18 10:22:11;;;;;;;;;;;;;;;15.46;31.24;100380.16;4434952;32;33912;-82
2023/03/18 10:24:41;;;;;;;;;;;;;;;15.60;28.96;100367.56;4381389;32;33605;-80
2023/03/18 10:27:09;;;;;;;;;;;;;;;16.38;28.57;100367.47;4420076;32;31270;-81
2023/03/18 10:29:45;;;;;;;;;;;;;;;14.74;30.58;100371.53;4391472;32;33983;-81
2023/03/18 10:32:20;;;;;;;;;;;;;;;14.89;31.20;100367.69;4407523;32;34393;-79
2023/03/18 10:34:53;;;;;;;;;;;;;;;15.62;29.48;100366.75;4414915;32;33901;-80
2023/03/18 10:37:36;;;;;;;;;;;;;;;16.18;29.38;100368.59;4398239;32;33435;-80
2023/03/18 10:40:09;;;;;;;;;;;;;;;16.41;28.71;100356.22;4385489;32;34332;-79
2023/03/18 10:42:37;;;;;;;;;;;;;;;16.90;28.07;100357.66;4397215;32;34285;-79
2023/03/18 10:45:09;;;;;;;;;;;;;;;17.30;27.96;100364.00;4422029;32;34307;-79
2023/03/18 10:47:37;;;;;;;;;;;;;;;17.29;27.92;100359.63;4402182;32;31366;-80
2023/03/18 10:50:09;;;;;;;;;;;;;;;15.06;30.29;100357.88;4380747;32;34969;-80
2023/03/18 10:52:38;;;;;;;;;;;;;;;14.55;31.44;100363.81;4391078;32;33899;-79
2023/03/18 10:55:16;;;;;;;;;;;;;;;15.56;31.29;100353.50;4393335;32;33670;-80
2023/03/18 10:57:43;;;;;;;;;;;;;;;16.67;29.45;100350.03;4418874;32;34308;-80
2023/03/18 11:00:34;;;;;;;;;;;;;;;17.51;27.53;100341.84;4408948;32;34282;-80
2023/03/18 11:03:04;;;;;;;6.93;3.70;;;;;;;17.00;27.68;100340.50;4373446;32;32216;-80
2023/03/18 11:05:34;;;;;;;;;;;;;;;16.93;29.48;100336.81;4376732;32;33682;-81
2023/03/18 11:08:04;;;;;;;;;;;;;;;16.14;30.20;100333.62;4370106;32;34360;-79
2023/03/18 11:10:33;;;;;;;;;;;;;;;16.85;30.20;100331.38;4383905;32;33531;-80
2023/03/18 11:13:02;;;;;;;11.57;4.00;;;;;;;17.45;29.10;100321.59;4371542;32;33640;-80
2023/03/18 11:15:38;;;;;;;9.05;4.75;;;;;;;17.44;29.28;100319.81;4389863;32;34467;-80
2023/03/18 11:18:13;;;;;;;8.05;4.35;;;;;;;17.16;28.83;100320.88;4374702;32;33697;-81
2023/03/18 11:20:46;;;;;;;;;;;;;;;17.88;28.31;100317.44;4356024;32;33957;-81
2023/03/18 11:23:19;;;;;;;;;;;;;;;16.09;29.92;100316.94;4369011;32;34330;-80
2023/03/18 11:25:47;;;;;;;;;;;;;;;16.83;29.33;100316.50;4367340;32;33933;-80
2023/03/18 11:28:19;;;;;;;;;;;;;;;18.10;28.62;100308.34;4370956;32;33800;-80
2023/03/18 11:30:48;;;;;;;;;;;;;;;18.48;26.84;100300.41;4369754;32;33950;-81
2023/03/18 11:33:16;;;;;;;;;;;;;;;18.31;28.01;100304.41;4368389;32;33872;-81
2023/03/18 11:35:45;;;;;;;;;;;;;;;18.81;27.25;100294.09;4380161;32;33852;-81
2023/03/18 11:38:18;;;;;;;;;;;;;;;19.05;27.09;100293.66;4401537;32;33983;-78
2023/03/18 11:40:45;;;;;;;;;;;;;;;19.32;26.89;100288.03;4403635;32;33929;-80
2023/03/18 11:43:15;;;;;;;;;;;;;;;19.31;26.58;100290.63;4415271;32;34742;-81
2023/03/18 11:45:43;;;;;;;;;;;;;;;17.30;29.30;100291.56;4393107;32;33250;-80
2023/03/18 11:48:13;;;;;;;;;;;;;;;17.66;29.94;100287.19;4407245;32;34065;-79
2023/03/18 11:50:45;;;;;;;;;;;;;;;18.17;28.98;100288.37;4429468;32;33512;-80
2023/03/18 11:53:16;;;;;;;;;;;;;;;18.91;27.07;100290.81;4416974;32;34625;-79